createdAt,value
2022-10-21T00:01:58.996Z,13.20
2022-10-21T00:04:27.205Z,13.10
2022-10-21T00:06:56.226Z,13.10
2022-10-21T00:09:24.863Z,13.20
2022-10-21T00:11:53.132Z,13.20
2022-10-21T00:14:21.257Z,13.20
2022-10-21T00:16:49.346Z,13.10
2022-10-21T00:19:18.864Z,13.10
2022-10-21T00:21:46.951Z,13.10
2022-10-21T00:24:15.022Z,13.10
2022-10-21T00:26:43.158Z,13.10
2022-10-21T00:29:11.264Z,13.10
2022-10-21T00:31:39.427Z,13.10
2022-10-21T00:34:07.550Z,13.10
2022-10-21T00:36:37.011Z,13.10
2022-10-21T00:39:05.259Z,13.10
2022-10-21T00:41:33.359Z,13.30
2022-10-21T00:44:03.485Z,13.20
2022-10-21T00:46:39.203Z,13.10
2022-10-21T00:49:10.343Z,13.10
2022-10-21T00:51:40.078Z,13.00
2022-10-21T00:54:08.244Z,13.00
2022-10-21T00:56:37.758Z,13.00
2022-10-21T00:59:07.547Z,13.10
2022-10-21T01:01:35.682Z,13.10
2022-10-21T01:04:04.344Z,13.10
2022-10-21T01:06:33.762Z,13.10
2022-10-21T01:09:03.965Z,13.10
2022-10-21T01:11:36.277Z,13.20
2022-10-21T01:14:45.895Z,13.20
2022-10-21T01:17:43.818Z,13.20
2022-10-21T01:20:39.721Z,13.20
2022-10-21T01:23:40.671Z,13.20
2022-10-21T01:26:48.299Z,13.20
2022-10-21T01:29:48.841Z,13.20
2022-10-21T01:32:29.432Z,13.20
2022-10-21T01:35:03.068Z,13.20
2022-10-21T01:37:37.760Z,13.20
2022-10-21T01:40:10.084Z,13.20
2022-10-21T01:42:43.752Z,13.20
2022-10-21T01:45:19.333Z,13.20
2022-10-21T01:47:54.287Z,13.30
2022-10-21T01:50:27.241Z,13.30
2022-10-21T01:52:59.119Z,13.30
2022-10-21T01:55:30.768Z,13.50
2022-10-21T01:58:03.668Z,13.50
2022-10-21T02:00:33.778Z,13.50
2022-10-21T02:03:08.699Z,13.40
2022-10-21T02:05:37.063Z,13.40
2022-10-21T02:08:05.892Z,13.40
2022-10-21T02:10:37.835Z,13.40
2022-10-21T02:13:10.353Z,13.50
2022-10-21T02:15:40.445Z,13.50
2022-10-21T02:18:19.247Z,13.50
2022-10-21T02:20:49.472Z,13.70
2022-10-21T02:23:20.638Z,13.60
2022-10-21T02:25:49.785Z,13.60
2022-10-21T02:28:18.932Z,13.60
2022-10-21T02:30:56.543Z,13.60
2022-10-21T02:33:37.274Z,13.60
2022-10-21T02:36:13.736Z,13.60
2022-10-21T02:38:46.189Z,13.70
2022-10-21T02:41:18.890Z,13.60
2022-10-21T02:43:50.667Z,13.60
2022-10-21T02:46:18.853Z,13.60
2022-10-21T02:48:49.569Z,13.60
2022-10-21T02:51:17.664Z,13.70
2022-10-21T02:53:45.833Z,13.70
2022-10-21T02:56:13.900Z,13.60
2022-10-21T02:58:41.928Z,13.60
2022-10-21T03:01:10.175Z,13.70
2022-10-21T03:03:38.289Z,13.70
2022-10-21T03:06:07.905Z,13.80
2022-10-21T03:08:36.017Z,13.80
2022-10-21T03:11:04.183Z,13.90
2022-10-21T03:13:32.744Z,13.90
2022-10-21T03:16:00.807Z,13.80
2022-10-21T03:18:28.888Z,13.90
2022-10-21T03:20:56.929Z,13.90
2022-10-21T03:23:26.451Z,13.80
2022-10-21T03:25:54.480Z,13.80
2022-10-21T03:28:22.572Z,13.80
2022-10-21T03:30:50.608Z,13.80
2022-10-21T03:33:18.763Z,13.70
2022-10-21T03:35:46.797Z,13.70
2022-10-21T03:38:15.118Z,13.70
2022-10-21T03:40:44.607Z,13.60
2022-10-21T03:43:12.719Z,13.60
2022-10-21T03:45:40.846Z,13.60
2022-10-21T03:48:08.910Z,13.60
2022-10-21T03:50:37.079Z,13.60
2022-10-21T03:53:13.877Z,13.60
2022-10-21T03:55:56.703Z,13.70
2022-10-21T03:58:25.685Z,13.70
2022-10-21T04:00:54.543Z,13.60
2022-10-21T04:03:22.816Z,13.60
2022-10-21T04:05:50.897Z,13.70
2022-10-21T04:08:19.084Z,13.60
2022-10-21T04:10:47.518Z,13.60
2022-10-21T04:13:17.292Z,13.60
2022-10-21T04:15:45.659Z,13.50
2022-10-21T04:18:13.747Z,13.50
2022-10-21T04:20:41.926Z,13.50
2022-10-21T04:23:10.006Z,13.50
2022-10-21T04:25:38.056Z,13.50
2022-10-21T04:28:06.254Z,13.50
2022-10-21T04:30:35.854Z,13.60
2022-10-21T04:33:03.965Z,13.60
2022-10-21T04:35:32.066Z,13.60
2022-10-21T04:38:00.547Z,13.50
2022-10-21T04:40:28.740Z,13.40
2022-10-21T04:42:56.813Z,13.40
2022-10-21T04:45:24.858Z,13.40
2022-10-21T04:47:54.327Z,13.40
2022-10-21T04:50:22.495Z,13.40
2022-10-21T04:52:50.595Z,13.40
2022-10-21T04:55:18.843Z,13.30
2022-10-21T04:57:47.315Z,13.30
2022-10-21T05:00:15.968Z,13.40
2022-10-21T05:02:44.099Z,13.40
2022-10-21T05:05:13.513Z,13.40
2022-10-21T05:07:41.607Z,13.50
2022-10-21T05:10:10.416Z,13.40
2022-10-21T05:12:38.504Z,13.40
2022-10-21T05:15:07.197Z,13.40
2022-10-21T05:17:36.764Z,13.40
2022-10-21T05:20:05.305Z,13.30
2022-10-21T05:22:34.726Z,13.30
2022-10-21T05:25:02.785Z,13.30
2022-10-21T05:27:30.824Z,13.30
2022-10-21T05:29:59.435Z,13.30
2022-10-21T05:32:27.520Z,13.20
2022-10-21T05:34:55.573Z,13.20
2022-10-21T05:37:23.610Z,13.20
2022-10-21T05:39:53.060Z,13.30
2022-10-21T05:42:21.214Z,13.30
2022-10-21T05:44:49.591Z,13.20
2022-10-21T05:47:17.695Z,13.30
2022-10-21T05:49:45.734Z,13.20
2022-10-21T05:52:14.135Z,13.20
2022-10-21T05:54:42.188Z,13.20
2022-10-21T05:57:11.611Z,13.20
2022-10-21T05:59:39.661Z,13.20
2022-10-21T06:02:07.936Z,13.20
2022-10-21T06:04:38.025Z,13.20
2022-10-21T06:07:06.916Z,13.20
2022-10-21T06:09:35.007Z,13.20
2022-10-21T06:12:03.033Z,13.20
2022-10-21T06:14:32.450Z,13.20
2022-10-21T06:17:00.553Z,13.30
2022-10-21T06:19:28.644Z,13.30
2022-10-21T06:21:56.692Z,13.30
2022-10-21T06:24:25.565Z,13.20
2022-10-21T06:26:53.663Z,13.20
2022-10-21T06:29:21.755Z,13.30
2022-10-21T06:31:51.243Z,13.30
2022-10-21T06:34:19.431Z,13.30
2022-10-21T06:36:47.472Z,13.20
2022-10-21T06:39:15.852Z,13.20
2022-10-21T06:41:43.972Z,13.20
2022-10-21T06:44:12.133Z,13.20
2022-10-21T06:46:40.198Z,13.20
2022-10-21T06:49:09.706Z,13.30
2022-10-21T06:51:37.792Z,13.20
2022-10-21T06:54:06.092Z,13.20
2022-10-21T06:56:34.208Z,13.20
2022-10-21T06:59:02.288Z,13.20
2022-10-21T07:01:41.780Z,13.20
2022-10-21T07:04:22.542Z,13.20
2022-10-21T07:06:50.632Z,13.30
2022-10-21T07:09:19.155Z,13.40
2022-10-21T07:11:47.247Z,13.50
2022-10-21T07:14:15.479Z,13.50
2022-10-21T07:16:43.710Z,13.50
2022-10-21T07:19:12.300Z,13.50
2022-10-21T07:21:41.941Z,13.50
2022-10-21T07:24:12.201Z,13.40
2022-10-21T07:26:40.936Z,13.40
2022-10-21T07:29:09.046Z,13.40
2022-10-21T07:31:39.012Z,13.30
2022-10-21T07:34:09.420Z,13.30
2022-10-21T07:36:39.568Z,13.30
2022-10-21T07:39:12.302Z,13.30
2022-10-21T07:41:42.530Z,13.30
2022-10-21T07:44:10.837Z,13.40
2022-10-21T07:46:40.049Z,13.50
2022-10-21T07:49:08.935Z,13.70
2022-10-21T07:51:37.248Z,13.70
2022-10-21T07:54:05.850Z,13.80
2022-10-21T07:56:37.726Z,13.80
2022-10-21T07:59:12.425Z,13.80
2022-10-21T08:01:44.411Z,13.70
2022-10-21T08:04:14.016Z,13.80
2022-10-21T08:06:42.163Z,13.80
2022-10-21T08:09:10.681Z,13.80
2022-10-21T08:11:40.304Z,13.80
2022-10-21T08:14:09.757Z,13.80
2022-10-21T08:16:38.311Z,13.80
2022-10-21T08:19:08.777Z,13.80
2022-10-21T08:21:38.346Z,14.00
2022-10-21T08:24:06.835Z,14.00
2022-10-21T08:26:34.845Z,14.00
2022-10-21T08:29:05.657Z,13.90
2022-10-21T08:31:33.848Z,13.90
2022-10-21T08:34:01.960Z,14.00
2022-10-21T08:36:30.051Z,13.90
2022-10-21T08:38:59.551Z,14.00
2022-10-21T08:41:49.540Z,13.90
2022-10-21T08:44:29.434Z,13.90
2022-10-21T08:47:03.950Z,13.90
2022-10-21T08:49:42.726Z,13.90
2022-10-21T08:52:14.571Z,13.90
2022-10-21T08:54:47.723Z,13.90
2022-10-21T08:57:16.030Z,13.80
2022-10-21T08:59:45.500Z,13.80
2022-10-21T09:02:39.295Z,13.80
2022-10-21T09:05:27.648Z,13.80
2022-10-21T09:08:06.509Z,13.80
2022-10-21T09:10:47.642Z,13.80
2022-10-21T09:13:22.811Z,13.90
2022-10-21T09:16:02.286Z,13.80
2022-10-21T09:18:42.892Z,13.90
2022-10-21T09:21:18.638Z,13.80
2022-10-21T09:23:56.923Z,13.80
2022-10-21T09:26:38.904Z,13.80
2022-10-21T09:29:26.515Z,13.90
2022-10-21T09:32:02.522Z,14.00
2022-10-21T09:34:44.794Z,13.90
2022-10-21T09:37:24.121Z,13.90
2022-10-21T09:40:01.285Z,13.90
2022-10-21T09:42:46.299Z,13.90
2022-10-21T09:45:22.290Z,14.00
2022-10-21T09:47:58.123Z,14.10
2022-10-21T09:50:27.639Z,14.10
2022-10-21T09:53:01.689Z,14.00
2022-10-21T09:55:31.042Z,14.00
2022-10-21T09:58:00.768Z,14.10
2022-10-21T10:00:47.822Z,14.10
2022-10-21T10:06:38.606Z,14.10
2022-10-21T10:09:09.456Z,14.10
2022-10-21T10:11:50.487Z,14.00
2022-10-21T10:14:30.818Z,14.10
2022-10-21T10:16:59.401Z,14.00
2022-10-21T10:19:29.159Z,13.90
2022-10-21T10:22:14.492Z,14.00
2022-10-21T10:24:43.294Z,14.00
2022-10-21T10:27:18.067Z,14.00
2022-10-21T10:29:52.750Z,14.00
2022-10-21T10:32:24.098Z,14.00
2022-10-21T10:34:55.096Z,13.90
2022-10-21T10:37:27.533Z,13.90
2022-10-21T10:39:58.071Z,13.90
2022-10-21T10:42:29.286Z,14.00
2022-10-21T10:44:59.652Z,14.00
2022-10-21T10:47:31.060Z,14.00
2022-10-21T10:49:59.153Z,14.00
2022-10-21T10:52:28.591Z,14.00
2022-10-21T10:55:18.325Z,14.00
2022-10-21T10:58:06.194Z,14.10
2022-10-21T11:00:43.663Z,14.20
2022-10-21T11:03:16.721Z,14.10
2022-10-21T11:05:47.807Z,14.10
2022-10-21T11:08:21.152Z,14.10
2022-10-21T11:10:53.431Z,14.10
2022-10-21T11:13:23.855Z,14.00
2022-10-21T11:16:02.231Z,14.00
2022-10-21T11:18:35.591Z,13.90
2022-10-21T11:21:12.132Z,14.00
2022-10-21T11:24:07.133Z,13.90
2022-10-21T11:26:46.252Z,13.90
2022-10-21T11:29:27.145Z,13.90
2022-10-21T11:32:17.049Z,13.90
2022-10-21T11:34:58.269Z,13.90
2022-10-21T11:37:38.341Z,14.00
2022-10-21T11:40:18.510Z,14.00
2022-10-21T11:42:49.892Z,14.00
2022-10-21T11:45:32.047Z,14.00
2022-10-21T11:48:08.272Z,14.00
2022-10-21T11:50:45.148Z,14.10
2022-10-21T11:53:30.661Z,14.10
2022-10-21T11:56:10.222Z,14.20
2022-10-21T11:58:49.474Z,14.20
2022-10-21T12:01:30.084Z,14.30
2022-10-21T12:04:34.515Z,14.30
2022-10-21T12:07:36.176Z,14.30
2022-10-21T12:10:11.841Z,14.30
2022-10-21T12:12:46.276Z,14.40
2022-10-21T12:15:19.600Z,14.40
2022-10-21T12:17:49.507Z,14.40
2022-10-21T12:20:23.924Z,14.40
2022-10-21T12:22:56.970Z,14.60
2022-10-21T12:25:34.349Z,14.80
2022-10-21T12:28:09.336Z,15.30
2022-10-21T12:30:43.332Z,15.80
2022-10-21T12:33:19.004Z,16.10
2022-10-21T12:35:50.554Z,16.00
2022-10-21T12:38:25.420Z,16.30
2022-10-21T12:41:34.310Z,16.30
2022-10-21T12:44:21.186Z,16.20
2022-10-21T12:46:52.151Z,16.20
2022-10-21T12:49:24.473Z,16.00
2022-10-21T12:51:57.348Z,16.00
2022-10-21T12:54:30.480Z,15.90
2022-10-21T12:57:04.213Z,15.80
2022-10-21T12:59:36.405Z,16.00
2022-10-21T13:02:20.532Z,16.00
2022-10-21T13:04:51.430Z,16.00
2022-10-21T13:07:47.923Z,16.60
2022-10-21T13:10:25.214Z,16.70
2022-10-21T13:13:43.056Z,16.60
2022-10-21T13:16:37.999Z,16.30
2022-10-21T13:19:27.324Z,16.10
2022-10-21T13:22:04.197Z,16.00
2022-10-21T13:24:33.846Z,16.00
2022-10-21T13:27:04.932Z,16.00
2022-10-21T13:29:46.300Z,15.90
2022-10-21T13:32:34.618Z,15.90
2022-10-21T13:35:29.836Z,15.80
2022-10-21T13:38:02.016Z,15.80
2022-10-21T13:40:35.122Z,15.80
2022-10-21T13:43:09.697Z,15.80
2022-10-21T13:45:43.094Z,15.80
2022-10-21T13:48:16.194Z,15.80
2022-10-21T13:50:46.269Z,15.90
2022-10-21T13:53:24.209Z,15.90
2022-10-21T13:55:57.425Z,15.90
2022-10-21T13:58:27.007Z,15.90
2022-10-21T14:00:57.992Z,16.00
2022-10-21T14:03:29.082Z,16.00
2022-10-21T14:05:59.977Z,16.10
2022-10-21T14:08:31.969Z,16.20
2022-10-21T14:11:03.156Z,16.30
2022-10-21T14:13:36.522Z,16.30
2022-10-21T14:16:05.566Z,16.40
2022-10-21T14:18:38.272Z,16.40
2022-10-21T14:21:09.172Z,16.40
2022-10-21T14:23:37.253Z,16.40
2022-10-21T14:26:07.683Z,16.30
2022-10-21T14:28:36.477Z,16.30
2022-10-21T14:33:45.133Z,16.40
2022-10-21T14:36:18.802Z,16.40
2022-10-21T14:38:54.268Z,16.40
2022-10-21T14:41:26.809Z,16.40
2022-10-21T14:43:58.264Z,16.40
2022-10-21T14:46:26.384Z,16.40
2022-10-21T14:48:59.649Z,16.40
2022-10-21T14:51:28.797Z,16.30
2022-10-21T14:53:59.760Z,16.30
2022-10-21T14:56:33.853Z,16.30
2022-10-21T14:59:08.800Z,16.30
2022-10-21T15:01:43.051Z,16.30
2022-10-21T15:04:42.223Z,16.30
2022-10-21T15:07:18.961Z,16.30
2022-10-21T15:10:01.111Z,16.20
2022-10-21T15:12:39.889Z,16.20
2022-10-21T15:15:42.331Z,16.30
2022-10-21T15:18:15.356Z,16.30
2022-10-21T15:21:00.216Z,16.30
2022-10-21T15:23:31.202Z,16.30
2022-10-21T15:26:03.630Z,16.30
2022-10-21T15:28:33.432Z,16.20
2022-10-21T15:31:02.514Z,16.20
2022-10-21T15:33:31.474Z,16.20
2022-10-21T15:36:08.594Z,16.20
2022-10-21T15:38:36.752Z,16.20
2022-10-21T15:41:05.040Z,16.10
2022-10-21T15:43:33.092Z,16.20
2022-10-21T15:46:01.189Z,16.10
2022-10-21T15:48:29.522Z,16.10
2022-10-21T15:50:57.981Z,16.20
2022-10-21T15:53:27.481Z,16.10
2022-10-21T15:55:55.842Z,16.10
2022-10-21T15:58:23.899Z,16.10
2022-10-21T16:00:52.031Z,16.10
2022-10-21T16:03:20.258Z,16.10
2022-10-21T16:05:48.444Z,16.00
2022-10-21T16:08:16.567Z,16.10
2022-10-21T16:10:47.947Z,16.10
2022-10-21T16:13:16.168Z,16.10
2022-10-21T16:15:44.357Z,16.10
2022-10-21T16:18:13.786Z,16.10
2022-10-21T16:20:43.620Z,16.10
2022-10-21T16:23:12.026Z,16.10
2022-10-21T16:25:40.091Z,16.00
2022-10-21T16:28:11.524Z,16.10
2022-10-21T16:30:41.733Z,16.10
2022-10-21T16:33:11.209Z,16.10
2022-10-21T16:35:39.342Z,16.10
2022-10-21T16:38:07.469Z,16.20
2022-10-21T16:40:36.608Z,16.20
2022-10-21T16:43:04.736Z,16.20
2022-10-21T16:45:34.389Z,16.20
2022-10-21T16:48:05.176Z,16.10
2022-10-21T16:50:39.506Z,16.10
2022-10-21T16:53:08.151Z,16.10
2022-10-21T16:55:36.190Z,16.20
2022-10-21T16:58:04.301Z,16.20
2022-10-21T17:00:34.063Z,16.10
2022-10-21T17:03:02.376Z,16.00
2022-10-21T17:05:30.502Z,15.90
2022-10-21T17:08:00.069Z,15.90
2022-10-21T17:10:28.338Z,15.90
2022-10-21T17:12:59.244Z,15.90
2022-10-21T17:15:28.345Z,15.90
2022-10-21T17:17:57.784Z,15.90
2022-10-21T17:20:30.258Z,15.80
2022-10-21T17:22:58.796Z,15.90
2022-10-21T17:25:27.868Z,15.80
2022-10-21T17:27:56.009Z,15.80
2022-10-21T17:30:24.508Z,15.80
2022-10-21T17:32:53.107Z,15.80
2022-10-21T17:35:22.843Z,15.80
2022-10-21T17:37:52.411Z,15.80
2022-10-21T17:40:23.079Z,15.80
2022-10-21T17:42:51.666Z,15.80
2022-10-21T17:45:20.983Z,15.70
2022-10-21T17:47:49.779Z,15.70
2022-10-21T17:50:23.490Z,15.70
2022-10-21T17:52:54.287Z,15.60
2022-10-21T17:55:23.110Z,15.60
2022-10-21T17:57:51.258Z,15.60
2022-10-21T18:00:19.379Z,15.50
2022-10-21T18:02:47.580Z,15.50
2022-10-21T18:05:15.650Z,15.50
2022-10-21T18:07:43.705Z,15.50
2022-10-21T18:10:13.341Z,15.50
2022-10-21T18:12:41.644Z,15.60
2022-10-21T18:15:10.458Z,15.60
2022-10-21T18:17:40.109Z,15.60
2022-10-21T18:20:09.778Z,15.60
2022-10-21T18:22:38.094Z,15.60
2022-10-21T18:25:06.994Z,15.60
2022-10-21T18:27:37.377Z,15.50
2022-10-21T18:30:06.289Z,15.50
2022-10-21T18:32:34.402Z,15.50
2022-10-21T18:35:02.534Z,15.50
2022-10-21T18:37:31.520Z,15.50
2022-10-21T18:39:59.639Z,15.50
2022-10-21T18:42:27.687Z,15.50
2022-10-21T18:44:57.185Z,15.50
2022-10-21T18:47:26.850Z,15.50
2022-10-21T18:49:55.074Z,15.40
2022-10-21T18:52:23.242Z,15.40
2022-10-21T18:54:51.298Z,15.40
2022-10-21T18:57:19.395Z,15.40
2022-10-21T18:59:47.483Z,15.40
2022-10-21T19:02:20.566Z,15.40
2022-10-21T19:04:48.660Z,15.30
2022-10-21T19:07:17.321Z,15.40
2022-10-21T19:09:46.785Z,15.40
2022-10-21T19:12:18.465Z,15.30
2022-10-21T19:14:49.214Z,15.30
2022-10-21T19:17:17.335Z,15.30
2022-10-21T19:19:46.855Z,15.20
2022-10-21T19:22:17.308Z,15.20
2022-10-21T19:24:45.521Z,15.10
2022-10-21T19:27:13.620Z,15.10
2022-10-21T19:29:43.475Z,15.10
2022-10-21T19:32:12.566Z,15.10
2022-10-21T19:34:40.951Z,15.10
2022-10-21T19:37:10.669Z,15.10
2022-10-21T19:39:38.753Z,15.10
2022-10-21T19:42:06.892Z,15.10
2022-10-21T19:44:35.050Z,15.10
2022-10-21T19:47:03.250Z,15.10
2022-10-21T19:49:31.308Z,15.10
2022-10-21T19:51:59.633Z,15.10
2022-10-21T19:54:29.136Z,15.10
2022-10-21T19:56:57.405Z,15.10
2022-10-21T19:59:25.535Z,15.10
2022-10-21T20:01:53.619Z,15.10
2022-10-21T20:04:22.727Z,15.10
2022-10-21T20:06:50.772Z,15.10
2022-10-21T20:09:18.865Z,15.10
2022-10-21T20:11:48.281Z,15.10
2022-10-21T20:14:16.781Z,15.10
2022-10-21T20:16:46.437Z,15.10
2022-10-21T20:19:14.982Z,15.10
2022-10-21T20:21:44.085Z,15.10
2022-10-21T20:24:14.013Z,15.10
2022-10-21T20:26:42.967Z,15.10
2022-10-21T20:29:13.259Z,15.10
2022-10-21T20:31:41.341Z,15.00
2022-10-21T20:34:09.418Z,15.00
2022-10-21T20:36:37.435Z,15.00
2022-10-21T20:39:05.765Z,15.00
2022-10-21T20:41:37.435Z,15.00
2022-10-21T20:44:08.004Z,15.00
2022-10-21T20:46:37.895Z,15.10
2022-10-21T20:49:07.310Z,15.00
2022-10-21T20:51:37.967Z,15.00
2022-10-21T20:54:08.629Z,15.00
2022-10-21T20:56:39.242Z,15.00
2022-10-21T20:59:08.645Z,15.00
2022-10-21T21:01:41.876Z,15.00
2022-10-21T21:04:12.451Z,15.10
2022-10-21T21:06:42.886Z,15.10
2022-10-21T21:12:00.418Z,15.10
2022-10-21T21:14:28.523Z,15.10
2022-10-21T21:16:58.028Z,15.00
2022-10-21T21:19:26.112Z,15.00
2022-10-21T21:21:54.366Z,15.00
2022-10-21T21:24:22.618Z,15.00
2022-10-21T21:26:50.651Z,15.00
2022-10-21T21:29:18.739Z,15.00
2022-10-21T21:31:46.770Z,15.00
2022-10-21T21:34:16.312Z,15.00
2022-10-21T21:36:44.393Z,15.00
2022-10-21T21:41:46.481Z,15.00
2022-10-21T21:44:14.646Z,14.90
2022-10-21T21:46:42.745Z,14.90
2022-10-21T21:49:10.844Z,14.90
2022-10-21T21:51:40.254Z,14.90
2022-10-21T21:54:08.703Z,14.80
2022-10-21T21:56:36.977Z,14.80
2022-10-21T21:59:05.644Z,14.80
2022-10-21T22:01:33.836Z,14.80
2022-10-21T22:04:02.388Z,14.80
2022-10-21T22:06:32.271Z,14.70
2022-10-21T22:09:02.966Z,14.70
2022-10-21T22:11:32.945Z,14.60
2022-10-21T22:14:01.441Z,14.60
2022-10-21T22:16:31.083Z,14.60
2022-10-21T22:19:01.543Z,14.60
2022-10-21T22:21:30.629Z,14.60
2022-10-21T22:23:58.696Z,14.60
2022-10-21T22:26:30.150Z,14.60
2022-10-21T22:28:58.343Z,14.60
2022-10-21T22:31:29.471Z,14.50
2022-10-21T22:34:00.457Z,14.60
2022-10-21T22:36:29.734Z,14.50
2022-10-21T22:38:58.171Z,14.50
2022-10-21T22:41:28.318Z,14.60
2022-10-21T22:43:56.656Z,14.60
2022-10-21T22:46:40.669Z,14.60
2022-10-21T22:49:09.009Z,14.60
2022-10-21T22:51:38.238Z,14.60
2022-10-21T22:54:14.996Z,14.60
2022-10-21T22:56:45.547Z,14.60
2022-10-21T22:59:14.339Z,14.60
2022-10-21T23:01:43.205Z,14.60
2022-10-21T23:04:12.214Z,14.60
2022-10-21T23:06:40.330Z,14.60
2022-10-21T23:09:08.970Z,14.60
2022-10-21T23:11:37.451Z,14.70
2022-10-21T23:14:09.448Z,14.70
2022-10-21T23:16:38.879Z,14.80
2022-10-21T23:19:08.177Z,14.90
2022-10-21T23:21:37.137Z,14.90
2022-10-21T23:24:06.764Z,14.80
2022-10-21T23:26:36.020Z,14.70
2022-10-21T23:29:06.325Z,14.60
2022-10-21T23:31:34.658Z,14.60
2022-10-21T23:34:06.208Z,14.60
2022-10-21T23:36:35.568Z,14.60
2022-10-21T23:39:04.866Z,14.60
2022-10-21T23:41:33.605Z,14.60
2022-10-21T23:44:02.339Z,14.60
2022-10-21T23:46:32.677Z,14.50
2022-10-21T23:49:00.761Z,14.50
2022-10-21T23:51:29.312Z,14.50
2022-10-21T23:53:58.915Z,14.50
2022-10-21T23:56:27.656Z,14.50
2022-10-21T23:58:56.622Z,14.50
